Prince George Airport
CYXS : rendu visible

Aérodrome :











RETROUVEZ-NOUS SUR...

 
LOGIN :

S'inscrire | Disclaimer

   EN    FR    IT 

 









Légende :    VFR   VFR Marginal   IFR   IFR Intensif   IFR Très Intensif
Visi : 
Plafond : 
>= 8 km
>= 3000ft
5 à 8 km
1000 à 3000 ft
1500m à 5 km
500 à 1000 ft
800 à 1500m
200 à 500 ft
< 800m
< 200 ft
Symboles :   Orages  Brouillard  Fortes neiges  Fortes précipitations  Vent > 20 kt






- Altitude de l'aérodrome : 2267 ft
- Code IATA : YXS


CYXS - Prince George

DERNIER METAR :
  • 210800Z AUTO 03003KT 9SM CLR M06/M06 A3004 RMK SLP214

METARs EXPIRÉS :
  • 210700Z AUTO 00000KT 9SM CLR M05/M05 A3005 RMK SLP217
  • 210600Z AUTO 01006KT 9SM FEW070 M04/M05 A3006 RMK SLP220

TAF TAF CYXS
Valide du 21 à 07h jusqu'au 21 à 19h UTC


210647Z 2107/2119 VRB03KT P6SM SCT070 SCT120 RMK FCST BASED ON AUTO OBS. NXT FCST BY 211300Z



MET'MAP, la Météo Aéronautique d'un coup d'oeil ! - Copyright ORBIFLY Décembre 2007 - Disclaimer

ORBIFLY MET'MAP TEAM :

Programmation & Développement : Alexandra Zaïnal
Conception & Développement : Baudouin d'Aumeries
Co-Programmation & Développement : Marc-Olivier Méhu
Soutien technique & logistique : Manuel Goepfert

Contact : metmap@orbifly.com




SOURCES & CREDITS :

   NOAA       Earth
Advisory